createdAt,value
2023-01-28T00:00:58.720Z,-0.64
2023-01-28T00:03:55.602Z,-0.62
2023-01-28T00:06:53.666Z,-0.57
2023-01-28T00:09:50.455Z,-0.54
2023-01-28T00:12:47.287Z,-0.41
2023-01-28T00:15:44.532Z,-0.59
2023-01-28T00:18:41.555Z,-0.59
2023-01-28T00:21:38.321Z,-0.59
2023-01-28T00:24:35.088Z,-0.55
2023-01-28T00:27:31.849Z,-0.61
2023-01-28T00:30:28.628Z,-0.75
2023-01-28T00:33:25.399Z,-0.80
2023-01-28T00:36:24.379Z,-0.66
2023-01-28T00:39:21.267Z,-0.71
2023-01-28T00:42:18.076Z,-0.64
2023-01-28T00:45:15.239Z,-0.64
2023-01-28T00:48:12.229Z,-0.71
2023-01-28T00:51:10.284Z,-0.76
2023-01-28T00:54:07.199Z,-0.60
2023-01-28T00:57:04.019Z,-0.84
2023-01-28T01:00:00.787Z,-0.82
2023-01-28T01:02:57.566Z,-0.84
2023-01-28T01:05:57.251Z,-0.84
2023-01-28T01:08:53.997Z,-0.90
2023-01-28T01:11:50.783Z,-0.89
2023-01-28T01:14:47.514Z,-0.94
2023-01-28T01:17:46.966Z,-0.83
2023-01-28T01:20:45.663Z,-0.91
2023-01-28T01:23:42.493Z,-0.91
2023-01-28T01:26:39.242Z,-0.89
2023-01-28T01:29:36.031Z,-0.83
2023-01-28T01:32:35.090Z,-0.80
2023-01-28T01:35:31.930Z,-0.82
2023-01-28T01:38:29.513Z,-0.83
2023-01-28T01:41:31.547Z,-0.87
2023-01-28T01:45:02.726Z,-0.88
2023-01-28T01:48:11.183Z,-0.81
2023-01-28T01:51:13.752Z,-0.88
2023-01-28T01:54:10.782Z,-0.80
2023-01-28T01:57:09.944Z,-0.91
2023-01-28T02:00:07.602Z,-0.89
2023-01-28T02:03:04.577Z,-0.92
2023-01-28T02:06:01.364Z,-0.96
2023-01-28T02:08:58.425Z,-0.94
2023-01-28T02:11:59.266Z,-0.83
2023-01-28T02:15:06.226Z,-1.01
2023-01-28T02:18:03.052Z,-0.89
2023-01-28T02:21:18.350Z,-0.88
2023-01-28T02:24:27.075Z,-1.02
2023-01-28T02:27:57.908Z,-0.99
2023-01-28T02:31:17.569Z,-0.94
2023-01-28T02:34:23.101Z,-0.91
2023-01-28T02:37:26.304Z,-0.99
2023-01-28T02:40:29.878Z,-0.96
2023-01-28T02:43:37.703Z,-0.94
2023-01-28T02:46:55.753Z,-0.91
2023-01-28T02:49:56.513Z,-0.96
2023-01-28T02:53:30.659Z,-1.02
2023-01-28T02:56:38.742Z,-1.10
2023-01-28T02:59:49.680Z,-1.09
2023-01-28T03:03:08.328Z,-1.07
2023-01-28T03:06:11.923Z,-1.06
2023-01-28T03:09:22.976Z,-0.97
2023-01-28T03:12:43.115Z,-0.99
2023-01-28T03:16:02.333Z,-1.09
2023-01-28T03:19:17.906Z,-1.10
2023-01-28T03:22:33.237Z,-1.10
2023-01-28T03:25:48.711Z,-1.18
2023-01-28T03:29:04.975Z,-0.99
2023-01-28T03:32:20.896Z,-0.95
2023-01-28T03:35:38.287Z,-0.84
2023-01-28T03:38:42.391Z,-0.83
2023-01-28T03:41:39.289Z,-1.04
2023-01-28T03:44:54.744Z,-0.95
2023-01-28T03:47:51.498Z,-0.90
2023-01-28T03:50:48.893Z,-1.04
2023-01-28T03:53:45.632Z,-1.11
2023-01-28T03:56:42.379Z,-1.16
2023-01-28T03:59:39.139Z,-1.10
2023-01-28T04:02:40.043Z,-0.84
2023-01-28T04:05:36.877Z,-1.05
2023-01-28T04:08:34.024Z,-1.01
2023-01-28T04:11:30.758Z,-1.06
2023-01-28T04:14:27.738Z,-1.07
2023-01-28T04:17:24.632Z,-1.06
2023-01-28T04:20:21.366Z,-1.07
2023-01-28T04:23:18.115Z,-1.05
2023-01-28T04:26:15.078Z,-1.06
2023-01-28T04:29:11.821Z,-1.08
2023-01-28T04:32:11.453Z,-1.20
2023-01-28T04:35:08.708Z,-1.09
2023-01-28T04:38:05.609Z,-1.06
2023-01-28T04:41:02.357Z,-1.06
2023-01-28T04:44:00.832Z,-1.07
2023-01-28T04:46:57.612Z,-1.15
2023-01-28T04:49:54.699Z,-1.13
2023-01-28T04:52:51.465Z,-1.23
2023-01-28T04:55:48.228Z,-1.20
2023-01-28T04:58:44.970Z,-1.17
2023-01-28T05:01:41.776Z,-1.25
2023-01-28T05:04:38.562Z,-1.19
2023-01-28T05:07:35.943Z,-1.28
2023-01-28T05:10:32.694Z,-1.13
2023-01-28T05:13:29.447Z,-1.23
2023-01-28T05:16:26.204Z,-1.13
2023-01-28T05:19:22.982Z,-1.28
2023-01-28T05:22:19.981Z,-1.31
2023-01-28T05:25:17.032Z,-1.33
2023-01-28T05:28:14.004Z,-1.32
2023-01-28T05:31:10.881Z,-1.33
2023-01-28T05:34:08.492Z,-1.25
2023-01-28T05:37:05.248Z,-1.40
2023-01-28T05:40:01.998Z,-1.34
2023-01-28T05:42:58.792Z,-1.35
2023-01-28T05:45:55.571Z,-1.36
2023-01-28T05:48:52.337Z,-1.37
2023-01-28T05:51:49.777Z,-1.38
2023-01-28T05:54:46.557Z,-1.56
2023-01-28T05:57:44.548Z,-1.46
2023-01-28T06:00:41.300Z,-1.54
2023-01-28T06:03:38.043Z,-1.46
2023-01-28T06:06:34.894Z,-1.51
2023-01-28T06:09:32.088Z,-1.75
2023-01-28T06:12:28.836Z,-1.73
2023-01-28T06:15:25.996Z,-1.78
2023-01-28T06:18:22.864Z,-1.62
2023-01-28T06:21:19.627Z,-1.66
2023-01-28T06:24:16.426Z,-1.62
2023-01-28T06:27:13.236Z,-1.80
2023-01-28T06:30:10.633Z,-1.90
2023-01-28T06:33:07.384Z,-1.79
2023-01-28T06:36:06.603Z,-1.81
2023-01-28T06:39:04.317Z,-1.76
2023-01-28T06:42:01.064Z,-1.65
2023-01-28T06:44:57.801Z,-1.86
2023-01-28T06:47:54.557Z,-1.81
2023-01-28T06:50:51.434Z,-1.76
2023-01-28T06:53:48.205Z,-1.80
2023-01-28T06:56:45.057Z,-1.76
2023-01-28T06:59:41.826Z,-1.68
2023-01-28T07:02:40.060Z,-1.83
2023-01-28T07:05:36.834Z,-1.87
2023-01-28T07:08:33.607Z,-1.84
2023-01-28T07:11:30.540Z,-1.77
2023-01-28T07:14:27.604Z,-1.66
2023-01-28T07:17:24.747Z,-1.92
2023-01-28T07:20:22.246Z,-1.89
2023-01-28T07:23:19.064Z,-1.84
2023-01-28T07:26:15.895Z,-1.80
2023-01-28T07:29:12.748Z,-1.87
2023-01-28T07:32:09.571Z,-1.96
2023-01-28T07:35:06.966Z,-1.84
2023-01-28T07:38:03.768Z,-1.92
2023-01-28T07:41:00.562Z,-1.89
2023-01-28T07:43:57.311Z,-1.99
2023-01-28T07:46:54.634Z,-2.09
2023-01-28T07:49:51.375Z,-2.07
2023-01-28T07:52:48.131Z,-2.11
2023-01-28T07:55:45.005Z,-2.04
2023-01-28T07:58:41.745Z,-2.04
2023-01-28T08:01:38.999Z,-2.16
2023-01-28T08:04:35.844Z,-2.03
2023-01-28T08:07:32.641Z,-2.05
2023-01-28T08:10:29.390Z,-1.88
2023-01-28T08:13:26.299Z,-1.88
2023-01-28T08:16:23.093Z,-1.87
2023-01-28T08:19:21.757Z,-2.01
2023-01-28T08:22:19.094Z,-1.97
2023-01-28T08:25:16.176Z,-1.93
2023-01-28T08:28:13.897Z,-1.99
2023-01-28T08:31:10.840Z,-2.03
2023-01-28T08:34:07.677Z,-1.92
2023-01-28T08:37:05.897Z,-1.86
2023-01-28T08:40:02.885Z,-1.83
2023-01-28T08:42:59.833Z,-1.73
2023-01-28T08:45:56.639Z,-1.60
2023-01-28T08:48:53.427Z,-1.54
2023-01-28T08:51:50.223Z,-1.69
2023-01-28T08:54:46.980Z,-1.88
2023-01-28T08:57:43.758Z,-1.72
2023-01-28T09:00:40.942Z,-1.79
2023-01-28T09:03:37.742Z,-1.55
2023-01-28T09:06:34.653Z,-1.98
2023-01-28T09:09:31.523Z,-1.87
2023-01-28T09:12:28.289Z,-1.80
2023-01-28T09:15:25.042Z,-1.85
2023-01-28T09:18:21.800Z,-1.77
2023-01-28T09:21:18.556Z,-1.66
2023-01-28T09:24:15.384Z,-1.74
2023-01-28T09:27:12.402Z,-1.68
2023-01-28T09:30:10.410Z,-1.91
2023-01-28T09:33:08.128Z,-1.77
2023-01-28T09:36:06.738Z,-1.69
2023-01-28T09:39:04.126Z,-1.72
2023-01-28T09:42:09.692Z,-1.88
2023-01-28T09:45:37.270Z,-1.77
2023-01-28T09:48:41.039Z,-1.80
2023-01-28T09:51:52.470Z,-1.72
2023-01-28T09:55:00.299Z,-1.83
2023-01-28T09:57:57.404Z,-1.97
2023-01-28T10:01:12.148Z,-1.77
2023-01-28T10:04:38.215Z,-1.70
2023-01-28T10:07:55.273Z,-1.59
2023-01-28T10:11:09.014Z,-1.78
2023-01-28T10:14:30.032Z,-1.83
2023-01-28T10:18:03.867Z,-1.63
2023-01-28T10:21:26.914Z,-1.51
2023-01-28T10:24:36.759Z,-1.79
2023-01-28T10:27:35.969Z,-1.61
2023-01-28T10:30:35.152Z,-1.86
2023-01-28T10:33:36.949Z,-1.89
2023-01-28T10:36:34.114Z,-1.75
2023-01-28T10:39:30.844Z,-1.42
2023-01-28T10:42:28.994Z,-1.82
2023-01-28T10:45:30.423Z,-1.74
2023-01-28T10:48:32.936Z,-1.52
2023-01-28T10:51:35.121Z,-1.17
2023-01-28T10:54:31.852Z,-1.48
2023-01-28T10:57:28.775Z,-1.47
2023-01-28T11:00:30.825Z,-1.62
2023-01-28T11:03:27.735Z,-1.88
2023-01-28T11:06:29.633Z,-1.63
2023-01-28T11:09:37.574Z,-1.57
2023-01-28T11:12:34.712Z,-1.62
2023-01-28T11:15:32.618Z,-1.41
2023-01-28T11:18:52.299Z,-1.52
2023-01-28T11:21:54.579Z,-1.40
2023-01-28T11:24:51.353Z,-1.44
2023-01-28T11:27:49.922Z,-1.43
2023-01-28T11:30:51.788Z,-1.44
2023-01-28T11:34:02.173Z,-1.29
2023-01-28T11:37:18.646Z,-1.38
2023-01-28T11:40:21.398Z,-1.63
2023-01-28T11:43:21.763Z,-1.71
2023-01-28T11:46:18.535Z,-1.59
2023-01-28T11:49:37.916Z,-1.67
2023-01-28T11:53:06.893Z,-1.46
2023-01-28T11:56:20.218Z,-1.69
2023-01-28T11:59:42.925Z,-1.73
2023-01-28T12:02:44.648Z,-1.68
2023-01-28T12:05:56.906Z,-1.53
2023-01-28T12:09:29.034Z,-1.57
2023-01-28T12:12:54.829Z,-1.56
2023-01-28T12:16:10.975Z,-1.31
2023-01-28T12:19:33.422Z,-1.68
2023-01-28T12:22:57.091Z,-1.81
2023-01-28T12:26:04.587Z,-1.82
2023-01-28T12:29:14.443Z,-1.98
2023-01-28T12:32:31.600Z,-1.84
2023-01-28T12:35:32.860Z,-1.75
2023-01-28T12:39:08.458Z,-1.87
2023-01-28T12:42:05.418Z,-1.85
2023-01-28T12:45:15.224Z,-1.91
2023-01-28T12:48:20.087Z,-1.87
2023-01-28T12:51:46.407Z,-1.52
2023-01-28T12:55:15.515Z,-1.61
2023-01-28T12:58:19.843Z,-1.77
2023-01-28T13:01:42.812Z,-1.61
2023-01-28T13:04:45.763Z,-2.06
2023-01-28T13:07:57.920Z,-1.95
2023-01-28T13:10:57.885Z,-1.97
2023-01-28T13:13:55.056Z,-2.01
2023-01-28T13:16:52.115Z,-1.94
2023-01-28T13:19:49.061Z,-1.99
2023-01-28T13:22:46.099Z,-1.82
2023-01-28T13:25:49.473Z,-1.96
2023-01-28T13:28:51.382Z,-1.85
2023-01-28T13:31:52.266Z,-2.29
2023-01-28T13:34:58.752Z,-2.11
2023-01-28T13:37:57.163Z,-2.19
2023-01-28T13:41:06.374Z,-2.06
2023-01-28T13:44:03.166Z,-2.15
2023-01-28T13:47:19.803Z,-2.13
2023-01-28T13:50:20.501Z,-2.20
2023-01-28T13:53:44.310Z,-2.39
2023-01-28T13:56:59.821Z,-2.44
2023-01-28T14:00:12.989Z,-2.16
2023-01-28T14:03:24.686Z,-2.24
2023-01-28T14:07:01.584Z,-2.18
2023-01-28T14:10:13.815Z,-2.46
2023-01-28T14:13:44.509Z,-2.68
2023-01-28T14:16:52.751Z,-2.55
2023-01-28T14:19:51.059Z,-2.65
2023-01-28T14:22:48.886Z,-2.23
2023-01-28T14:25:57.553Z,-2.41
2023-01-28T14:29:10.582Z,-2.48
2023-01-28T14:32:17.037Z,-2.31
2023-01-28T14:35:19.616Z,-2.55
2023-01-28T14:38:18.949Z,-2.75
2023-01-28T14:41:26.132Z,-2.80
2023-01-28T14:44:33.587Z,-2.58
2023-01-28T14:47:30.305Z,-2.51
2023-01-28T14:50:34.668Z,-2.64
2023-01-28T14:53:56.610Z,-2.60
2023-01-28T14:56:56.266Z,-2.72
2023-01-28T14:59:57.978Z,-2.67
2023-01-28T15:02:54.824Z,-2.40
2023-01-28T15:06:13.508Z,-2.56
2023-01-28T15:09:13.195Z,-2.68
2023-01-28T15:12:10.036Z,-2.68
2023-01-28T15:15:29.030Z,-2.98
2023-01-28T15:18:37.546Z,-2.86
2023-01-28T15:21:35.743Z,-2.87
2023-01-28T15:24:34.952Z,-2.90
2023-01-28T15:27:32.351Z,-2.76
2023-01-28T15:30:31.874Z,-3.20
2023-01-28T15:33:28.654Z,-2.99
2023-01-28T15:36:26.964Z,-3.12
2023-01-28T15:39:26.061Z,-3.02
2023-01-28T15:42:26.984Z,-3.04
2023-01-28T15:45:26.118Z,-2.97
2023-01-28T15:48:30.933Z,-3.00
2023-01-28T15:51:31.733Z,-2.98
2023-01-28T15:54:30.386Z,-3.04
2023-01-28T15:57:34.975Z,-3.21
2023-01-28T16:00:31.718Z,-3.28
2023-01-28T16:03:28.597Z,-3.27
2023-01-28T16:06:38.447Z,-3.25
2023-01-28T16:09:36.060Z,-3.23
2023-01-28T16:12:32.813Z,-3.27
2023-01-28T16:15:29.591Z,-3.32
2023-01-28T16:18:38.954Z,-3.20
2023-01-28T16:21:38.526Z,-3.33
2023-01-28T16:24:36.350Z,-3.09
2023-01-28T16:27:33.406Z,-3.20
2023-01-28T16:30:30.313Z,-3.24
2023-01-28T16:33:27.295Z,-3.39
2023-01-28T16:36:24.148Z,-3.27
2023-01-28T16:39:20.901Z,-3.35
2023-01-28T16:42:17.896Z,-3.25
2023-01-28T16:45:18.716Z,-3.21
2023-01-28T16:48:15.585Z,-3.32
2023-01-28T16:51:21.364Z,-3.28
2023-01-28T16:54:18.234Z,-3.37
2023-01-28T16:57:20.611Z,-3.36
2023-01-28T17:00:20.534Z,-3.21
2023-01-28T17:03:17.286Z,-3.04
2023-01-28T17:06:18.672Z,-2.90
2023-01-28T17:09:15.622Z,-3.19
2023-01-28T17:12:12.364Z,-3.37
2023-01-28T17:15:09.495Z,-3.10
2023-01-28T17:18:06.298Z,-3.22
2023-01-28T17:21:05.482Z,-3.48
2023-01-28T17:24:03.148Z,-3.41
2023-01-28T17:27:00.145Z,-3.50
2023-01-28T17:29:56.931Z,-2.95
2023-01-28T17:32:54.140Z,-3.27
2023-01-28T17:35:50.912Z,-3.31
2023-01-28T17:38:48.587Z,-3.34
2023-01-28T17:41:45.363Z,-3.15
2023-01-28T17:44:42.137Z,-3.12
2023-01-28T17:47:39.267Z,-3.05
2023-01-28T17:50:39.185Z,-3.26
2023-01-28T17:53:36.030Z,-3.30
2023-01-28T17:56:32.899Z,-3.24
2023-01-28T17:59:29.737Z,-3.34
2023-01-28T18:02:26.559Z,-3.47
2023-01-28T18:05:23.875Z,-3.54
2023-01-28T18:08:20.627Z,-3.36
2023-01-28T18:11:19.218Z,-3.27
2023-01-28T18:14:16.005Z,-3.30
2023-01-28T18:17:12.839Z,-3.32
2023-01-28T18:20:10.684Z,-3.17
2023-01-28T18:23:07.507Z,-3.53
2023-01-28T18:26:07.243Z,-3.27
2023-01-28T18:29:04.560Z,-3.17
2023-01-28T18:32:01.389Z,-3.40
2023-01-28T18:34:58.129Z,-3.27
2023-01-28T18:37:55.446Z,-3.49
2023-01-28T18:40:56.216Z,-3.44
2023-01-28T18:43:52.966Z,-3.63
2023-01-28T18:46:50.951Z,-3.67
2023-01-28T18:49:47.787Z,-3.65
2023-01-28T18:52:44.630Z,-3.73
2023-01-28T18:55:41.388Z,-3.48
2023-01-28T18:58:38.159Z,-3.68
2023-01-28T19:01:35.469Z,-3.39
2023-01-28T19:04:32.622Z,-3.38
2023-01-28T19:07:31.147Z,-3.67
2023-01-28T19:10:27.979Z,-3.72
2023-01-28T19:13:25.224Z,-3.52
2023-01-28T19:16:22.090Z,-3.47
2023-01-28T19:19:18.876Z,-3.47
2023-01-28T19:22:16.557Z,-3.72
2023-01-28T19:25:13.793Z,-3.64
2023-01-28T19:28:10.748Z,-3.74
2023-01-28T19:31:09.678Z,-3.86
2023-01-28T19:34:06.959Z,-3.44
2023-01-28T19:37:03.728Z,-3.42
2023-01-28T19:40:00.486Z,-3.54
2023-01-28T19:42:57.303Z,-3.60
2023-01-28T19:45:57.797Z,-3.78
2023-01-28T19:48:54.695Z,-3.56
2023-01-28T19:51:51.939Z,-3.89
2023-01-28T19:54:48.673Z,-3.61
2023-01-28T19:57:45.457Z,-3.70
2023-01-28T20:00:42.222Z,-3.65
2023-01-28T20:03:39.361Z,-3.78
2023-01-28T20:06:36.333Z,-3.84
2023-01-28T20:09:33.145Z,-3.70
2023-01-28T20:12:29.881Z,-3.69
2023-01-28T20:15:26.614Z,-3.85
2023-01-28T20:18:23.397Z,-4.14
2023-01-28T20:21:20.907Z,-3.68
2023-01-28T20:24:17.796Z,-3.67
2023-01-28T20:27:14.579Z,-4.19
2023-01-28T20:30:11.877Z,-3.85
2023-01-28T20:33:08.625Z,-4.04
2023-01-28T20:36:08.055Z,-3.84
2023-01-28T20:39:04.794Z,-4.02
2023-01-28T20:42:01.828Z,-3.65
2023-01-28T20:44:58.557Z,-3.66
2023-01-28T20:47:55.351Z,-3.87
2023-01-28T20:50:52.279Z,-4.15
2023-01-28T20:53:49.604Z,-4.03
2023-01-28T20:56:48.744Z,-3.75
2023-01-28T20:59:46.527Z,-3.89
2023-01-28T21:02:45.109Z,-3.83
2023-01-28T21:05:44.716Z,-3.88
2023-01-28T21:08:41.474Z,-3.83
2023-01-28T21:11:38.276Z,-3.93
2023-01-28T21:14:35.009Z,-3.81
2023-01-28T21:17:32.060Z,-3.98
2023-01-28T21:20:29.911Z,-3.37
2023-01-28T21:23:26.650Z,-3.55
2023-01-28T21:26:24.140Z,-3.80
2023-01-28T21:29:20.889Z,-3.80
2023-01-28T21:32:17.929Z,-3.73
2023-01-28T21:35:14.743Z,-3.75
2023-01-28T21:38:11.806Z,-3.68
2023-01-28T21:41:08.933Z,-4.19
2023-01-28T21:44:05.673Z,-4.03
2023-01-28T21:47:02.424Z,-3.99
2023-01-28T21:50:00.702Z,-4.14
2023-01-28T21:52:57.479Z,-4.06
2023-01-28T21:55:54.263Z,-3.88
2023-01-28T21:59:23.349Z,-3.89
2023-01-28T22:02:22.786Z,-3.87
2023-01-28T22:05:20.543Z,-3.83
2023-01-28T22:08:17.629Z,-3.77
2023-01-28T22:11:14.370Z,-3.90
2023-01-28T22:14:11.606Z,-4.03
2023-01-28T22:17:11.148Z,-4.23
2023-01-28T22:20:08.566Z,-4.33
2023-01-28T22:23:05.310Z,-4.25
2023-01-28T22:26:02.450Z,-4.17
2023-01-28T22:28:59.194Z,-4.34
2023-01-28T22:31:56.062Z,-4.40
2023-01-28T22:34:52.930Z,-4.34
2023-01-28T22:37:49.691Z,-4.11
2023-01-28T22:40:46.428Z,-4.09
2023-01-28T22:43:43.236Z,-4.23
2023-01-28T22:46:40.105Z,-4.15
2023-01-28T22:49:36.895Z,-4.35
2023-01-28T22:52:33.647Z,-4.40
2023-01-28T22:55:32.538Z,-4.35
2023-01-28T22:58:31.517Z,-4.35
2023-01-28T23:01:28.966Z,-4.08
2023-01-28T23:04:25.741Z,-4.43
2023-01-28T23:07:22.500Z,-4.37
2023-01-28T23:10:19.548Z,-4.08
2023-01-28T23:13:22.387Z,-4.33
2023-01-28T23:16:37.776Z,-4.19
2023-01-28T23:19:53.643Z,-4.28
2023-01-28T23:23:09.128Z,-4.12
2023-01-28T23:26:07.121Z,-4.36
2023-01-28T23:29:04.025Z,-4.48
2023-01-28T23:32:03.779Z,-4.41
2023-01-28T23:35:00.533Z,-4.50
2023-01-28T23:37:57.307Z,-4.48
2023-01-28T23:40:54.890Z,-4.41
2023-01-28T23:43:51.661Z,-4.35
2023-01-28T23:46:48.476Z,-4.34
2023-01-28T23:49:45.807Z,-4.42
2023-01-28T23:52:42.564Z,-4.62
2023-01-28T23:55:40.568Z,-4.48
2023-01-28T23:58:43.812Z,-4.12
